createdAt,value
2022-09-12T00:00:42.459Z,12.7
2022-09-12T00:01:55.526Z,12.7
2022-09-12T00:03:08.363Z,12.7
2022-09-12T00:04:21.380Z,12.6
2022-09-12T00:06:47.435Z,12.7
2022-09-12T00:08:00.444Z,12.7
2022-09-12T00:09:13.405Z,12.7
2022-09-12T00:10:26.717Z,12.7
2022-09-12T00:11:39.371Z,12.7
2022-09-12T00:12:52.402Z,12.7
2022-09-12T00:14:05.251Z,12.5
2022-09-12T00:15:18.408Z,12.5
2022-09-12T00:16:31.454Z,12.5
2022-09-12T00:17:44.443Z,12.5
2022-09-12T00:18:57.770Z,12.5
2022-09-12T00:20:10.383Z,12.5
2022-09-12T00:21:23.291Z,12.5
2022-09-12T00:22:36.384Z,12.5
2022-09-12T00:23:49.401Z,12.5
2022-09-12T00:25:02.236Z,12.5
2022-09-12T00:26:15.512Z,12.5
2022-09-12T00:27:28.389Z,12.5
2022-09-12T00:28:41.482Z,12.5
2022-09-12T00:29:54.589Z,12.5
2022-09-12T00:31:07.533Z,12.5
2022-09-12T00:32:20.486Z,12.5
2022-09-12T00:33:33.558Z,12.3
2022-09-12T00:34:46.398Z,12.4
2022-09-12T00:35:59.416Z,12.4
2022-09-12T00:37:12.400Z,12.4
2022-09-12T00:38:25.239Z,12.3
2022-09-12T00:39:38.485Z,12.2
2022-09-12T00:40:51.434Z,12.2
2022-09-12T00:42:04.719Z,12.2
2022-09-12T00:43:17.572Z,12.2
2022-09-12T00:44:30.400Z,12.2
2022-09-12T00:45:43.419Z,12.2
2022-09-12T00:46:56.422Z,12.2
2022-09-12T00:48:09.371Z,12.2
2022-09-12T00:49:22.338Z,12.2
2022-09-12T00:50:35.460Z,12.2
2022-09-12T00:51:48.285Z,12.2
2022-09-12T00:53:01.347Z,12.2
2022-09-12T00:54:14.398Z,12.2
2022-09-12T00:55:27.318Z,12.2
2022-09-12T00:56:40.728Z,12.2
2022-09-12T00:57:53.490Z,12.1
2022-09-12T00:59:06.664Z,12.1
2022-09-12T01:00:19.371Z,12.1
2022-09-12T01:01:32.851Z,12.1
2022-09-12T01:02:45.419Z,12.1
2022-09-12T01:03:58.488Z,12.1
2022-09-12T01:05:11.428Z,12.1
2022-09-12T01:06:24.433Z,12.1
2022-09-12T01:07:39.981Z,12.1
2022-09-12T01:08:50.391Z,12.1
2022-09-12T01:10:03.419Z,12.2
2022-09-12T01:11:16.499Z,12.2
2022-09-12T01:12:29.478Z,12.2
2022-09-12T01:13:42.492Z,12.2
2022-09-12T01:14:55.394Z,12.2
2022-09-12T01:16:08.464Z,12
2022-09-12T01:17:21.390Z,12
2022-09-12T01:18:34.173Z,12
2022-09-12T01:19:48.237Z,12.1
2022-09-12T01:21:00.501Z,12.2
2022-09-12T01:22:13.484Z,12.2
2022-09-12T01:23:26.400Z,12
2022-09-12T01:24:39.508Z,12
2022-09-12T01:25:52.435Z,12.1
2022-09-12T01:27:05.426Z,12.2
2022-09-12T01:28:18.435Z,12.2
2022-09-12T01:29:31.356Z,12.2
2022-09-12T01:30:44.246Z,12.1
2022-09-12T01:31:57.413Z,12.1
2022-09-12T01:33:10.513Z,12.2
2022-09-12T01:34:23.388Z,12.2
2022-09-12T01:35:36.314Z,12.1
2022-09-12T01:36:49.423Z,12
2022-09-12T01:38:02.407Z,12
2022-09-12T01:40:28.390Z,12
2022-09-12T01:41:41.421Z,12
2022-09-12T01:46:33.438Z,12
2022-09-12T01:47:46.454Z,12
2022-09-12T01:48:59.411Z,12
2022-09-12T01:50:12.967Z,12
2022-09-12T01:51:25.378Z,12
2022-09-12T01:52:38.410Z,12
2022-09-12T01:53:51.279Z,12
2022-09-12T01:55:07.729Z,12
2022-09-12T01:56:17.485Z,12
2022-09-12T01:57:30.420Z,12
2022-09-12T01:58:43.461Z,12
2022-09-12T01:59:56.420Z,12
2022-09-12T02:01:09.413Z,12
2022-09-12T02:02:22.526Z,12.2
2022-09-12T02:03:35.375Z,12.2
2022-09-12T02:04:48.403Z,12.1
2022-09-12T02:06:01.351Z,12.1
2022-09-12T02:07:14.393Z,12.1
2022-09-12T02:08:27.400Z,12.1
2022-09-12T02:09:40.439Z,12.1
2022-09-12T02:10:53.387Z,12.1
2022-09-12T02:12:06.389Z,12.1
2022-09-12T02:13:19.498Z,12.1
2022-09-12T02:14:32.400Z,12.1
2022-09-12T02:15:45.296Z,12.1
2022-09-12T02:16:58.379Z,12.1
2022-09-12T02:18:11.630Z,12.2
2022-09-12T02:19:24.447Z,12.2
2022-09-12T02:20:47.826Z,12.2
2022-09-12T02:21:50.592Z,12.2
2022-09-12T02:23:03.446Z,12.2
2022-09-12T02:24:16.394Z,12.1
2022-09-12T02:25:29.369Z,12.1
2022-09-12T02:26:42.412Z,12.1
2022-09-12T02:27:55.417Z,12.1
2022-09-12T02:29:08.436Z,12.1
2022-09-12T02:30:21.412Z,12.1
2022-09-12T02:31:34.378Z,12.1
2022-09-12T02:32:47.471Z,12.1
2022-09-12T02:34:00.383Z,12.2
2022-09-12T02:35:13.531Z,12.2
2022-09-12T02:36:26.774Z,12.2
2022-09-12T02:37:39.715Z,12.1
2022-09-12T02:38:52.384Z,12.1
2022-09-12T02:40:05.603Z,12.1
2022-09-12T02:41:18.369Z,12.1
2022-09-12T02:42:31.379Z,12.1
2022-09-12T02:43:44.372Z,12.1
2022-09-12T02:44:57.406Z,12.1
2022-09-12T02:46:10.427Z,12.1
2022-09-12T02:47:23.425Z,12.1
2022-09-12T02:48:36.230Z,12.1
2022-09-12T02:49:49.388Z,12.1
2022-09-12T02:51:02.383Z,12.1
2022-09-12T02:52:15.441Z,12.1
2022-09-12T02:53:28.373Z,12
2022-09-12T02:54:41.366Z,12
2022-09-12T02:55:54.403Z,12
2022-09-12T02:57:07.415Z,12
2022-09-12T02:58:20.654Z,12
2022-09-12T02:59:33.385Z,12
2022-09-12T03:28:45.537Z,11.8
2022-09-12T03:29:58.380Z,11.8
2022-09-12T03:31:11.361Z,11.8
2022-09-12T03:32:24.304Z,11.8
2022-09-12T03:33:37.298Z,11.8
2022-09-12T03:34:50.287Z,11.8
2022-09-12T03:36:03.310Z,11.8
2022-09-12T03:37:16.335Z,11.8
2022-09-12T03:38:29.358Z,11.7
2022-09-12T03:39:42.655Z,11.8
2022-09-12T03:40:55.216Z,11.8
2022-09-12T03:42:08.366Z,11.8
2022-09-12T03:43:21.293Z,11.8
2022-09-12T03:44:34.306Z,11.8
2022-09-12T03:45:47.301Z,11.8
2022-09-12T03:47:00.324Z,11.8
2022-09-12T03:48:13.323Z,11.8
2022-09-12T03:49:26.271Z,11.8
2022-09-12T03:50:39.272Z,11.8
2022-09-12T03:51:52.303Z,11.8
2022-09-12T03:53:05.378Z,11.8
2022-09-12T03:54:18.620Z,11.8
2022-09-12T03:55:31.147Z,11.8
2022-09-12T03:56:44.293Z,11.8
2022-09-12T03:57:57.239Z,11.8
2022-09-12T03:59:10.340Z,11.8
2022-09-12T04:00:23.161Z,11.8
2022-09-12T04:01:36.365Z,11.8
2022-09-12T04:02:49.295Z,11.7
2022-09-12T04:04:02.361Z,11.8
2022-09-12T04:05:15.216Z,11.8
2022-09-12T04:06:28.307Z,11.8
2022-09-12T04:07:41.317Z,11.8
2022-09-12T04:08:54.346Z,11.8
2022-09-12T04:10:07.279Z,11.8
2022-09-12T04:11:20.359Z,11.8
2022-09-12T04:12:33.310Z,11.8
2022-09-12T04:13:46.158Z,11.8
2022-09-12T04:14:59.644Z,11.9
2022-09-12T04:16:12.359Z,11.8
2022-09-12T04:17:25.464Z,11.8
2022-09-12T04:18:38.277Z,11.8
2022-09-12T04:19:51.457Z,11.8
2022-09-12T04:21:04.307Z,11.8
2022-09-12T04:22:17.679Z,11.8
2022-09-12T04:23:30.494Z,11.8
2022-09-12T04:24:43.173Z,11.8
2022-09-12T04:25:56.292Z,11.8
2022-09-12T04:27:09.311Z,11.9
2022-09-12T04:28:22.287Z,12
2022-09-12T04:29:35.301Z,12
2022-09-12T04:30:48.377Z,12
2022-09-12T04:32:01.252Z,12
2022-09-12T04:33:13.997Z,12
2022-09-12T04:34:27.341Z,12
2022-09-12T04:39:19.336Z,12.1
2022-09-12T04:40:32.281Z,12.1
2022-09-12T04:41:45.266Z,12.1
2022-09-12T04:42:58.404Z,12.2
2022-09-12T04:44:11.285Z,12.2
2022-09-12T04:45:24.316Z,12.2
2022-09-12T04:46:37.258Z,12.2
2022-09-12T04:47:50.147Z,12.2
2022-09-12T04:49:03.459Z,12.4
2022-09-12T04:50:16.403Z,12.4
2022-09-12T04:51:29.262Z,12.4
2022-09-12T04:52:42.292Z,12.4
2022-09-12T04:53:55.396Z,12.4
2022-09-12T04:55:08.429Z,12.4
2022-09-12T04:56:21.319Z,12.4
2022-09-12T04:57:34.213Z,12.3
2022-09-12T04:58:47.335Z,12.3
2022-09-12T05:00:03.960Z,12.3
2022-09-12T05:01:13.340Z,12.3
2022-09-12T05:02:26.346Z,12.3
2022-09-12T05:03:39.335Z,12.3
2022-09-12T05:04:52.311Z,12.3
2022-09-12T05:06:05.039Z,12.5
2022-09-12T05:07:18.328Z,12.5
2022-09-12T05:08:31.293Z,12.5
2022-09-12T05:09:44.389Z,12.5
2022-09-12T05:10:57.465Z,12.5
2022-09-12T05:12:10.302Z,12.5
2022-09-12T05:13:23.647Z,12.5
2022-09-12T05:14:36.200Z,12.5
2022-09-12T05:15:49.293Z,12.5
2022-09-12T05:17:02.362Z,12.7
2022-09-12T05:18:15.293Z,12.7
2022-09-12T05:19:28.372Z,12.7
2022-09-12T05:20:41.388Z,12.7
2022-09-12T05:21:54.298Z,12.7
2022-09-12T05:23:07.193Z,12.7
2022-09-12T05:24:20.208Z,12.7
2022-09-12T05:25:33.360Z,12.7
2022-09-12T05:26:46.433Z,12.6
2022-09-12T05:27:59.334Z,12.6
2022-09-12T05:29:12.351Z,12.6
2022-09-12T05:30:25.382Z,12.7
2022-09-12T05:31:38.287Z,12.7
2022-09-12T05:32:51.431Z,12.7
2022-09-12T05:34:04.300Z,12.7
2022-09-12T05:35:17.316Z,12.7
2022-09-12T05:36:30.338Z,12.7
2022-09-12T05:37:43.297Z,12.8
2022-09-12T05:38:56.304Z,12.9
2022-09-12T05:40:09.431Z,12.9
2022-09-12T05:41:24.949Z,12.9
2022-09-12T05:42:35.185Z,12.9
2022-09-12T05:43:48.347Z,12.9
2022-09-12T05:45:01.145Z,13
2022-09-12T05:46:14.295Z,13
2022-09-12T05:47:27.344Z,13
2022-09-12T05:48:40.353Z,13.1
2022-09-12T05:49:53.299Z,13.2
2022-09-12T05:51:06.292Z,13.2
2022-09-12T05:52:19.470Z,13.3
2022-09-12T05:53:32.492Z,13.3
2022-09-12T05:54:45.340Z,13.2
2022-09-12T05:55:58.329Z,13.4
2022-09-12T05:57:11.330Z,13.4
2022-09-12T05:58:24.388Z,13.5
2022-09-12T05:59:37.282Z,13.5
2022-09-12T06:00:50.209Z,13.7
2022-09-12T06:02:03.509Z,13.8
2022-09-12T06:03:16.301Z,13.8
2022-09-12T06:04:29.843Z,13.9
2022-09-12T06:05:42.472Z,14
2022-09-12T06:06:55.299Z,14.1
2022-09-12T06:08:08.291Z,14.1
2022-09-12T06:09:21.308Z,14.2
2022-09-12T06:10:34.695Z,14.3
2022-09-12T06:11:47.312Z,14.3
2022-09-12T06:13:00.178Z,14.4
2022-09-12T06:14:13.613Z,14.4
2022-09-12T06:15:26.336Z,14.6
2022-09-12T06:16:39.405Z,14.6
2022-09-12T06:17:52.373Z,14.7
2022-09-12T06:19:05.326Z,14.7
2022-09-12T06:20:18.471Z,14.7
2022-09-12T06:21:31.204Z,14.8
2022-09-12T06:22:44.378Z,14.8
2022-09-12T06:23:57.337Z,15
2022-09-12T06:25:10.051Z,15.1
2022-09-12T06:26:23.426Z,15.1
2022-09-12T06:27:36.070Z,15.3
2022-09-12T06:28:49.438Z,15.3
2022-09-12T06:30:02.347Z,15.4
2022-09-12T06:31:15.302Z,15.4
2022-09-12T06:32:28.300Z,15.5
2022-09-12T06:33:41.327Z,15.6
2022-09-12T06:34:54.444Z,15.6
2022-09-12T06:36:11.634Z,15.8
2022-09-12T06:37:20.269Z,15.7
2022-09-12T06:38:33.374Z,15.9
2022-09-12T06:39:46.935Z,15.9
2022-09-12T06:40:59.276Z,16
2022-09-12T06:42:12.198Z,16.1
2022-09-12T06:43:25.220Z,16.1
2022-09-12T06:44:38.286Z,16.2
2022-09-12T06:45:51.347Z,16.2
2022-09-12T06:47:04.301Z,16.4
2022-09-12T06:48:17.576Z,16.6
2022-09-12T06:49:30.403Z,16.5
2022-09-12T06:50:43.040Z,16.7
2022-09-12T06:51:56.410Z,16.7
2022-09-12T06:53:09.412Z,16.9
2022-09-12T06:54:22.406Z,16.8
2022-09-12T06:55:35.314Z,16.9
2022-09-12T06:56:48.840Z,17
2022-09-12T06:58:01.378Z,17
2022-09-12T06:59:14.388Z,17.1
2022-09-12T07:00:27.380Z,17.2
2022-09-12T07:01:40.533Z,17.1
2022-09-12T07:02:53.294Z,17.2
2022-09-12T07:04:06.312Z,17.3
2022-09-12T07:05:19.292Z,17.3
2022-09-12T07:06:32.335Z,17.4
2022-09-12T07:07:45.361Z,17.5
2022-09-12T07:08:58.249Z,17.4
2022-09-12T07:10:11.690Z,17.4
2022-09-12T07:12:37.285Z,17.6
2022-09-12T07:13:49.993Z,17.6
2022-09-12T07:15:03.773Z,17.8
2022-09-12T07:16:19.592Z,17.8
2022-09-12T07:17:29.393Z,17.7
2022-09-12T07:18:42.289Z,17.9
2022-09-12T07:19:55.273Z,17.9
2022-09-12T07:21:08.304Z,17.8
2022-09-12T07:22:21.275Z,17.9
2022-09-12T07:23:34.328Z,17.9
2022-09-12T07:24:47.446Z,17.9
2022-09-12T07:26:00.116Z,17.9
2022-09-12T07:27:13.546Z,17.9
2022-09-12T07:28:26.589Z,17.9
2022-09-12T07:29:39.132Z,17.9
2022-09-12T07:30:52.328Z,17.9
2022-09-12T07:32:05.250Z,17.9
2022-09-12T07:33:18.001Z,17.9
2022-09-12T07:34:31.200Z,17.9
2022-09-12T07:35:44.278Z,17.9
2022-09-12T07:36:57.470Z,18.1
2022-09-12T07:38:10.242Z,18.1
2022-09-12T07:39:23.242Z,18.1
2022-09-12T07:40:36.346Z,18.1
2022-09-12T07:41:49.253Z,18.1
2022-09-12T07:43:02.220Z,18.1
2022-09-12T07:44:14.977Z,18.1
2022-09-12T07:45:28.369Z,18.1
2022-09-12T07:46:41.088Z,18.1
2022-09-12T07:47:54.245Z,18.2
2022-09-12T07:49:08.371Z,18.2
2022-09-12T07:50:20.276Z,18.2
2022-09-12T07:51:33.758Z,18.2
2022-09-12T07:52:46.202Z,18.2
2022-09-12T07:53:59.535Z,18.2
2022-09-12T07:55:12.196Z,18.4
2022-09-12T07:56:29.610Z,18.4
2022-09-12T07:57:38.079Z,18.4
2022-09-12T07:58:51.222Z,18.4
2022-09-12T08:00:04.247Z,18.2
2022-09-12T08:01:17.523Z,18.2
2022-09-12T08:02:30.445Z,18.2
2022-09-12T08:03:43.284Z,18.2
2022-09-12T08:04:56.253Z,18.2
2022-09-12T08:06:09.236Z,18.1
2022-09-12T08:07:22.316Z,18.1
2022-09-12T08:08:35.318Z,18.1
2022-09-12T08:09:48.569Z,18.1
2022-09-12T08:11:01.184Z,18.1
2022-09-12T08:12:14.200Z,18.1
2022-09-12T08:13:27.272Z,18.2
2022-09-12T08:14:40.185Z,18.2
2022-09-12T08:15:53.234Z,18.2
2022-09-12T08:17:06.310Z,18.2
2022-09-12T08:18:19.321Z,18.2
2022-09-12T08:19:32.074Z,18.4
2022-09-12T08:20:45.201Z,18.4
2022-09-12T08:21:58.227Z,18.4
2022-09-12T08:23:11.226Z,18.3
2022-09-12T08:24:24.226Z,18.3
2022-09-12T08:25:37.314Z,18.6
2022-09-12T08:26:50.115Z,18.6
2022-09-12T08:28:03.244Z,18.6
2022-09-12T08:29:16.227Z,18.6
2022-09-12T08:30:29.442Z,18.6
2022-09-12T08:31:42.255Z,18.7
2022-09-12T08:32:55.207Z,18.7
2022-09-12T08:34:08.210Z,18.8
2022-09-12T08:35:21.298Z,18.8
2022-09-12T08:36:34.333Z,18.8
2022-09-12T08:37:47.215Z,19.1
2022-09-12T08:39:00.844Z,19.1
2022-09-12T08:40:13.153Z,19.2
2022-09-12T08:41:26.279Z,19.3
2022-09-12T08:42:39.174Z,19.4
2022-09-12T08:43:54.486Z,19.5
2022-09-12T08:45:05.253Z,19.7
2022-09-12T08:46:18.134Z,19.7
2022-09-12T08:47:31.181Z,19.8
2022-09-12T08:48:44.354Z,20
2022-09-12T08:49:57.370Z,20.1
2022-09-12T08:51:10.238Z,20.1
2022-09-12T08:52:23.236Z,20.1
2022-09-12T08:53:36.265Z,20.3
2022-09-12T08:54:49.316Z,20.4
2022-09-12T08:56:02.232Z,20.7
2022-09-12T08:57:15.236Z,20.7
2022-09-12T08:58:28.413Z,20.6
2022-09-12T08:59:41.341Z,20.8
2022-09-12T09:00:54.248Z,20.8
2022-09-12T09:02:07.255Z,21.1
2022-09-12T09:03:20.263Z,21.1
2022-09-12T09:04:33.391Z,21.3
2022-09-12T09:05:46.306Z,21.3
2022-09-12T09:06:59.227Z,21.3
2022-09-12T09:08:12.251Z,21.5
2022-09-12T09:09:25.234Z,21.3
2022-09-12T09:10:38.318Z,21.4
2022-09-12T09:11:51.551Z,21.3
2022-09-12T09:13:04.226Z,21.3
2022-09-12T09:14:17.292Z,21.3
2022-09-12T09:15:30.344Z,21.4
2022-09-12T09:16:43.330Z,21.4
2022-09-12T09:17:56.416Z,21.4
2022-09-12T09:19:09.386Z,21.6
2022-09-12T09:20:22.244Z,21.4
2022-09-12T09:21:35.148Z,21.4
2022-09-12T09:22:48.227Z,21.4
2022-09-12T09:24:01.518Z,21.4
2022-09-12T09:25:14.254Z,21.6
2022-09-12T09:26:27.264Z,21.7
2022-09-12T09:27:42.222Z,21.7
2022-09-12T09:28:53.039Z,21.8
2022-09-12T09:30:06.247Z,21.8
2022-09-12T09:31:19.096Z,21.8
2022-09-12T09:32:32.085Z,21.8
2022-09-12T09:33:45.608Z,21.8
2022-09-12T09:34:58.202Z,21.8
2022-09-12T09:36:11.394Z,21.8
2022-09-12T09:37:24.376Z,21.8
2022-09-12T09:38:37.221Z,21.9
2022-09-12T09:39:50.311Z,22
2022-09-12T09:41:03.202Z,22
2022-09-12T09:42:16.089Z,22
2022-09-12T09:43:29.243Z,22.1
2022-09-12T09:44:42.310Z,22.1
2022-09-12T09:45:55.401Z,22.2
2022-09-12T09:47:08.342Z,22.4
2022-09-12T09:48:21.142Z,22.4
2022-09-12T09:49:34.209Z,22.7
2022-09-12T09:50:47.206Z,22.6
2022-09-12T09:52:00.654Z,22.8
2022-09-12T09:53:13.318Z,22.9
2022-09-12T09:54:26.246Z,22.9
2022-09-12T09:55:39.172Z,23.2
2022-09-12T09:56:52.351Z,23.2
2022-09-12T09:58:05.094Z,23.3
2022-09-12T09:59:18.237Z,23.5
2022-09-12T10:00:31.151Z,23.4
2022-09-12T10:01:44.253Z,23.3
2022-09-12T10:02:57.230Z,23.2
2022-09-12T10:04:10.212Z,23.1
2022-09-12T10:05:23.195Z,23.3
2022-09-12T10:06:36.295Z,23.3
2022-09-12T10:07:49.229Z,23.3
2022-09-12T10:09:02.151Z,23.3
2022-09-12T10:10:15.044Z,23.3
2022-09-12T10:11:28.487Z,23.3
2022-09-12T10:12:41.119Z,23.3
2022-09-12T10:13:54.561Z,23.3
2022-09-12T10:15:07.183Z,23.3
2022-09-12T10:16:20.256Z,23.3
2022-09-12T10:17:34.395Z,23.3
2022-09-12T10:18:46.214Z,23.3
2022-09-12T10:20:17.816Z,23.3
2022-09-12T10:21:12.242Z,23.3
2022-09-12T10:22:25.209Z,23.3
2022-09-12T10:24:51.265Z,23.3
2022-09-12T10:26:04.185Z,23.3
2022-09-12T10:27:17.199Z,23.2
2022-09-12T10:28:30.240Z,23.2
2022-09-12T10:29:43.178Z,23.2
2022-09-12T10:30:56.280Z,23.2
2022-09-12T10:32:09.163Z,23.2
2022-09-12T10:33:22.037Z,23.2
2022-09-12T10:34:35.159Z,23.2
2022-09-12T10:35:48.024Z,23.2
2022-09-12T10:37:01.187Z,23.2
2022-09-12T10:38:14.215Z,23.2
2022-09-12T10:39:27.226Z,23.2
2022-09-12T10:40:40.032Z,23.2
2022-09-12T10:41:53.071Z,23.2
2022-09-12T10:43:06.347Z,23.2
2022-09-12T10:44:19.344Z,23.2
2022-09-12T10:45:32.247Z,23.2
2022-09-12T10:46:45.267Z,23.2
2022-09-12T10:47:58.218Z,22.9
2022-09-12T10:49:11.179Z,22.9
2022-09-12T10:50:24.334Z,22.9
2022-09-12T10:51:37.166Z,22.9
2022-09-12T10:52:50.117Z,23
2022-09-12T10:54:03.286Z,23
2022-09-12T10:55:16.163Z,23
2022-09-12T10:56:29.190Z,23
2022-09-12T10:57:42.171Z,23
2022-09-12T10:58:55.135Z,23
2022-09-12T11:00:08.193Z,22.9
2022-09-12T11:01:21.390Z,22.9
2022-09-12T11:02:34.206Z,22.9
2022-09-12T11:03:47.183Z,22.9
2022-09-12T11:05:00.310Z,23.2
2022-09-12T11:06:13.150Z,23.2
2022-09-12T11:07:26.209Z,23.2
2022-09-12T11:08:39.220Z,23.2
2022-09-12T11:09:52.181Z,23.2
2022-09-12T11:11:05.266Z,23.2
2022-09-12T11:12:18.148Z,23.2
2022-09-12T11:13:31.105Z,23.2
2022-09-12T11:14:44.122Z,23.2
2022-09-12T11:15:57.173Z,23.2
2022-09-12T11:17:13.317Z,23.3
2022-09-12T11:18:23.228Z,23.3
2022-09-12T11:19:36.253Z,23.3
2022-09-12T11:20:49.145Z,23.3
2022-09-12T11:22:02.713Z,23.3
2022-09-12T11:23:15.170Z,23.3
2022-09-12T11:24:28.132Z,23.4
2022-09-12T11:25:41.141Z,23.5
2022-09-12T11:26:54.264Z,23.5
2022-09-12T11:28:07.308Z,23.5
2022-09-12T11:29:20.477Z,23.5
2022-09-12T11:30:33.292Z,23.5
2022-09-12T11:31:46.277Z,23.5
2022-09-12T11:32:59.280Z,23.5
2022-09-12T11:34:12.149Z,23.5
2022-09-12T11:35:25.162Z,23.5
2022-09-12T11:36:38.161Z,23.5
2022-09-12T11:37:51.422Z,23.5
2022-09-12T11:39:04.219Z,23.5
2022-09-12T11:40:17.113Z,23.5
2022-09-12T11:41:29.994Z,23.5
2022-09-12T11:42:43.035Z,23.5
2022-09-12T11:43:56.342Z,23.5
2022-09-12T11:45:09.143Z,23.5
2022-09-12T11:46:22.179Z,23.5
2022-09-12T11:47:35.588Z,23.3
2022-09-12T11:48:48.252Z,23.4
2022-09-12T11:50:01.081Z,23.5
2022-09-12T11:51:14.461Z,23.5
2022-09-12T11:52:27.161Z,23.5
2022-09-12T11:53:40.176Z,23.5
2022-09-12T11:54:53.990Z,23.5
2022-09-12T11:56:06.203Z,23.5
2022-09-12T11:57:19.220Z,23.5
2022-09-12T11:58:32.166Z,23.5
2022-09-12T11:59:45.112Z,23.5
2022-09-12T12:00:58.131Z,23.5
2022-09-12T12:02:11.027Z,23.5
2022-09-12T12:03:24.136Z,23.5
2022-09-12T12:04:37.149Z,23.5
2022-09-12T12:05:50.129Z,23.5
2022-09-12T12:07:03.753Z,23.5
2022-09-12T12:08:16.115Z,23.5
2022-09-12T12:09:29.223Z,23.6
2022-09-12T12:10:42.741Z,23.7
2022-09-12T12:11:55.118Z,23.7
2022-09-12T12:13:12.041Z,23.7
2022-09-12T12:14:21.278Z,23.7
2022-09-12T12:15:34.236Z,23.6
2022-09-12T12:16:47.198Z,23.6
2022-09-12T12:18:00.285Z,23.6
2022-09-12T12:19:13.225Z,23.6
2022-09-12T12:20:26.120Z,23.6
2022-09-12T12:21:39.336Z,23.6
2022-09-12T12:22:52.216Z,23.6
2022-09-12T12:24:05.115Z,23.6
2022-09-12T12:25:21.374Z,23.6
2022-09-12T12:26:31.082Z,23.6
2022-09-12T12:27:44.176Z,23.6
2022-09-12T12:28:57.210Z,23.6
2022-09-12T12:30:10.228Z,23.6
2022-09-12T12:31:23.266Z,23.6
2022-09-12T12:32:36.126Z,23.6
2022-09-12T12:33:49.134Z,23.6
2022-09-12T12:35:02.110Z,23.6
2022-09-12T12:36:15.118Z,23.6
2022-09-12T12:37:28.095Z,23.8
2022-09-12T12:38:40.965Z,23.8
2022-09-12T12:39:54.248Z,23.8
2022-09-12T12:41:07.118Z,23.8
2022-09-12T12:42:22.273Z,23.8
2022-09-12T12:43:33.224Z,23.8
2022-09-12T12:44:46.067Z,23.8
2022-09-12T12:45:59.169Z,23.8
2022-09-12T12:47:12.211Z,23.8
2022-09-12T12:48:25.084Z,23.8
2022-09-12T12:49:38.082Z,23.8
2022-09-12T12:50:51.121Z,23.8
2022-09-12T12:52:04.252Z,23.8
2022-09-12T12:53:17.157Z,23.8
2022-09-12T12:54:31.202Z,23.8
2022-09-12T12:55:43.084Z,23.8
2022-09-12T12:56:56.444Z,23.8
2022-09-12T12:58:09.212Z,23.8
2022-09-12T12:59:22.317Z,23.8
2022-09-12T13:00:35.039Z,23.8
2022-09-12T13:01:50.471Z,23.8
2022-09-12T13:03:00.895Z,23.8
2022-09-12T13:04:14.171Z,23.8
2022-09-12T13:05:27.067Z,23.8
2022-09-12T13:06:40.092Z,23.8
2022-09-12T13:07:53.091Z,23.8
2022-09-12T13:09:06.103Z,23.8
2022-09-12T13:10:19.068Z,23.8
2022-09-12T13:11:31.770Z,23.9
2022-09-12T13:12:45.151Z,24
2022-09-12T13:13:58.002Z,23.9
2022-09-12T13:15:11.156Z,23.9
2022-09-12T13:16:24.131Z,24
2022-09-12T13:17:37.284Z,23.9
2022-09-12T13:18:50.121Z,23.9
2022-09-12T13:20:24.048Z,23.9
2022-09-12T13:21:16.645Z,23.9
2022-09-12T13:22:29.139Z,23.9
2022-09-12T13:23:42.094Z,23.9
2022-09-12T13:24:55.291Z,23.9
2022-09-12T13:26:08.105Z,23.9
2022-09-12T13:27:21.206Z,23.9
2022-09-12T13:28:34.025Z,23.9
2022-09-12T13:29:47.115Z,23.9
2022-09-12T13:31:00.138Z,24.2
2022-09-12T13:32:13.342Z,24.2
2022-09-12T13:33:26.066Z,24.2
2022-09-12T13:34:39.082Z,24.2
2022-09-12T13:35:51.945Z,24.2
2022-09-12T13:37:05.098Z,24.2
2022-09-12T13:38:18.129Z,24.2
2022-09-12T13:39:31.238Z,24.2
2022-09-12T13:40:44.107Z,24.2
2022-09-12T13:41:57.107Z,24.2
2022-09-12T13:43:10.120Z,24.2
2022-09-12T13:44:23.234Z,24.3
2022-09-12T13:45:36.176Z,24.3
2022-09-12T13:46:49.247Z,24.3
2022-09-12T13:48:01.778Z,24.3
2022-09-12T13:49:15.143Z,24.3
2022-09-12T13:50:28.316Z,24.3
2022-09-12T13:51:41.070Z,24.3
2022-09-12T13:52:54.080Z,24.3
2022-09-12T13:54:07.275Z,24.4
2022-09-12T13:55:20.071Z,24.3
2022-09-12T13:56:33.086Z,24.3
2022-09-12T13:57:46.401Z,24.5
2022-09-12T13:58:59.313Z,24.5
2022-09-12T14:00:12.256Z,24.5
2022-09-12T14:01:25.084Z,24.5
2022-09-12T14:02:38.122Z,24.5
2022-09-12T14:03:51.946Z,24.5
2022-09-12T14:05:04.096Z,24.5
2022-09-12T14:06:17.060Z,24.5
2022-09-12T14:07:30.095Z,24.5
2022-09-12T14:08:44.063Z,24.5
2022-09-12T14:09:56.072Z,24.5
2022-09-12T14:11:09.027Z,24.5
2022-09-12T14:12:21.827Z,24.5
2022-09-12T14:13:35.157Z,24.5
2022-09-12T14:14:48.039Z,24.5
2022-09-12T14:16:01.107Z,24.5
2022-09-12T14:17:16.204Z,24.5
2022-09-12T14:18:27.053Z,24.5
2022-09-12T14:19:39.796Z,24.5
2022-09-12T14:20:53.071Z,24.5
2022-09-12T14:22:06.231Z,24.4
2022-09-12T14:23:19.205Z,24.4
2022-09-12T14:24:31.954Z,24.4
2022-09-12T14:25:45.011Z,24.4
2022-09-12T14:26:57.993Z,24.4
2022-09-12T14:28:11.109Z,24.6
2022-09-12T14:29:24.006Z,24.7
2022-09-12T14:30:37.179Z,24.7
2022-09-12T14:31:50.018Z,24.7
2022-09-12T14:33:03.037Z,24.7
2022-09-12T14:34:15.980Z,24.7
2022-09-12T14:35:29.040Z,24.7
2022-09-12T14:36:42.590Z,24.7
2022-09-12T14:37:55.731Z,24.7
2022-09-12T14:39:09.183Z,24.7
2022-09-12T14:41:34.758Z,24.4
2022-09-12T14:42:48.044Z,24.4
2022-09-12T14:44:01.335Z,24.4
2022-09-12T14:46:27.038Z,24.4
2022-09-12T14:47:40.376Z,24.4
2022-09-12T14:48:53.569Z,24.4
2022-09-12T14:50:09.374Z,24.4
2022-09-12T14:52:32.047Z,24.4
2022-09-12T14:53:45.053Z,24.5
2022-09-12T14:54:58.088Z,24.5
2022-09-12T14:58:37.023Z,24.4
2022-09-12T14:59:50.019Z,24.5
2022-09-12T15:01:03.031Z,24.5
2022-09-12T15:02:16.224Z,24.5
2022-09-12T15:03:29.096Z,24.4
2022-09-12T15:04:42.215Z,24.5
2022-09-12T15:05:55.087Z,24.5
2022-09-12T15:07:08.076Z,24.5
2022-09-12T15:08:21.124Z,24.5
2022-09-12T15:09:34.137Z,24.5
2022-09-12T15:10:47.256Z,24.5
2022-09-12T15:12:00.045Z,24.5
2022-09-12T15:13:13.074Z,24.5
2022-09-12T15:14:26.049Z,24.5
2022-09-12T15:15:39.561Z,24.3
2022-09-12T15:16:52.095Z,24.3
2022-09-12T15:18:06.687Z,24.3
2022-09-12T15:19:18.206Z,24.3
2022-09-12T15:20:31.331Z,24.3
2022-09-12T15:21:43.887Z,24.3
2022-09-12T15:22:57.300Z,24.3
2022-09-12T15:24:10.036Z,24.3
2022-09-12T15:25:23.046Z,24.3
2022-09-12T15:26:36.111Z,24.3
2022-09-12T15:27:49.034Z,24.2
2022-09-12T15:29:02.006Z,24.2
2022-09-12T15:30:15.220Z,24.2
2022-09-12T15:31:27.993Z,24.2
2022-09-12T15:32:41.063Z,24.2
2022-09-12T15:33:54.267Z,24.2
2022-09-12T15:35:06.993Z,24.2
2022-09-12T15:36:20.161Z,24.2
2022-09-12T15:37:33.033Z,24.2
2022-09-12T15:38:46.022Z,24.2
2022-09-12T15:41:12.189Z,24.2
2022-09-12T15:42:25.423Z,24.2
2022-09-12T15:43:38.193Z,24.2
2022-09-12T15:44:51.229Z,24.2
2022-09-12T15:46:04.023Z,24.2
2022-09-12T15:47:17.041Z,24.2
2022-09-12T15:48:30.210Z,24.1
2022-09-12T15:49:43.669Z,23.9
2022-09-12T15:50:56.017Z,23.9
2022-09-12T15:52:09.042Z,23.9
2022-09-12T15:53:22.711Z,23.9
2022-09-12T15:54:35.032Z,23.9
2022-09-12T15:55:48.091Z,23.9
2022-09-12T15:57:01.454Z,24
2022-09-12T15:58:14.370Z,23.9
2022-09-12T15:59:27.015Z,23.8
2022-09-12T16:00:39.961Z,23.8
2022-09-12T16:01:53.676Z,23.8
2022-09-12T16:03:06.086Z,23.8
2022-09-12T16:04:19.170Z,23.8
2022-09-12T16:05:32.318Z,23.8
2022-09-12T16:06:44.865Z,23.8
2022-09-12T16:07:58.045Z,23.7
2022-09-12T16:09:14.832Z,23.6
2022-09-12T16:10:24.014Z,23.6
2022-09-12T16:11:37.042Z,23.6
2022-09-12T16:12:49.868Z,23.6
2022-09-12T16:14:03.139Z,23.6
2022-09-12T16:15:16.071Z,23.6
2022-09-12T16:16:29.051Z,23.7
2022-09-12T16:18:55.371Z,23.7
2022-09-12T16:20:08.360Z,23.7
2022-09-12T16:21:21.025Z,23.7
2022-09-12T16:22:34.184Z,23.5
2022-09-12T16:23:47.149Z,23.5
2022-09-12T16:25:00.321Z,23.5
2022-09-12T16:26:12.932Z,23.5
2022-09-12T16:27:26.536Z,23.5
2022-09-12T16:28:39.048Z,23.5
2022-09-12T16:29:52.037Z,23.5
2022-09-12T16:31:05.092Z,23.5
2022-09-12T16:32:18.560Z,23.5
2022-09-12T16:33:31.298Z,23.5
2022-09-12T16:34:44.185Z,23.5
2022-09-12T16:35:57.086Z,23.5
2022-09-12T16:37:10.022Z,23.5
2022-09-12T16:38:23.111Z,23.3
2022-09-12T16:39:35.998Z,23.3
2022-09-12T16:40:49.024Z,23.3
2022-09-12T16:42:02.407Z,23.3
2022-09-12T16:43:14.971Z,23.3
2022-09-12T16:44:27.985Z,23.3
2022-09-12T16:45:40.881Z,23.3
2022-09-12T16:46:54.079Z,23.3
2022-09-12T16:48:06.880Z,23.3
2022-09-12T16:49:20.025Z,23.3
2022-09-12T16:50:32.978Z,23.3
2022-09-12T16:51:46.034Z,23.3
2022-09-12T16:52:58.943Z,23.3
2022-09-12T16:54:11.992Z,23.3
2022-09-12T16:55:25.082Z,23.2
2022-09-12T16:56:37.976Z,23.2
2022-09-12T16:57:51.186Z,23.2
2022-09-12T16:59:04.109Z,23.2
2022-09-12T17:00:17.017Z,23.2
2022-09-12T17:01:30.231Z,23.2
2022-09-12T17:02:43.291Z,23.2
2022-09-12T17:03:56.080Z,23.2
2022-09-12T17:05:09.237Z,23.2